Time;durP1;ratioP1;P1;durP2;ratioP2;P2;SDS_P1;SDS_P2;PMS_P1;PMS_P2;Temp;Humidity;BMP_temperature;BMP_pressure;BME280_temperature;BME280_humidity;BME280_pressure;Samples;Min_cycle;Max_cycle;Signal;HPM_P1;HPM_P2
2023/02/20 00:00:38;;;;;;;;;;;;;;;13.39;77.35;102131.34;1271605;23;827;-64
2023/02/20 00:01:29;;;;;;;;;;;;;;;13.40;77.80;102136.63;1271787;23;618;-64
2023/02/20 00:02:19;;;;;;;;;;;;;;;13.40;77.04;102136.63;1272077;23;664;-64
2023/02/20 00:03:10;;;;;;;;;;;;;;;13.40;77.27;102146.47;1271431;23;672;-64
2023/02/20 00:04:00;;;;;;;;;;;;;;;13.38;77.28;102141.19;1272377;23;669;-64
2023/02/20 00:04:50;;;;;;;;;;;;;;;13.38;77.92;102143.00;1271675;23;653;-64
2023/02/20 00:05:41;;;;;;;;;;;;;;;13.37;77.30;102152.00;1271849;23;700;-64
2023/02/20 00:06:31;;;;;;;;;;;;;;;13.38;77.36;102151.03;1271716;23;647;-63
2023/02/20 00:07:22;;;;;;;;;;;;;;;13.39;77.72;102150.97;1271753;23;657;-64
2023/02/20 00:08:12;;;;;;;;;;;;;;;13.37;78.06;102152.84;1271742;23;670;-64
2023/02/20 00:09:03;;;;;;;;;;;;;;;13.39;77.25;102155.44;1271766;23;634;-64
2023/02/20 00:09:53;;;;;;;;;;;;;;;13.39;77.65;102150.97;1272435;23;649;-64
2023/02/20 00:10:44;;;;;;;;;;;;;;;13.39;77.95;102150.97;1271666;23;700;-64
2023/02/20 00:11:34;;;;;;;;;;;;;;;13.39;77.22;102139.38;1271428;23;634;-63
2023/02/20 00:12:24;;;;;;;;;;;;;;;13.38;77.42;102138.53;1271783;23;651;-64
2023/02/20 00:13:15;;;;;;;;;;;;;;;13.38;77.81;102141.19;1271151;23;642;-64
2023/02/20 00:14:05;;;;;;;;;;;;;;;13.39;77.34;102142.06;1272647;23;673;-64
2023/02/20 00:14:56;;;;;;;;;;;;;;;13.39;77.10;102134.03;1271697;23;701;-63
2023/02/20 00:15:46;;;;;;;;;;;;;;;13.38;77.17;102130.50;1271428;23;614;-64
2023/02/20 00:16:36;;;;;;;;;;;;;;;13.37;77.40;102128.75;1271676;23;645;-64
2023/02/20 00:17:27;;;;;;;;;;;;;;;13.37;77.78;102126.09;1271850;23;673;-64
2023/02/20 00:18:17;;;;;;;;;;;;;;;13.36;77.11;102129.72;1271481;23;1077;-63
2023/02/20 00:19:08;;;;;;;;;;;;;;;13.35;77.75;102132.47;1271727;23;709;-64
2023/02/20 00:19:58;;;;;;;;;;;;;;;13.35;77.38;102130.66;1271465;23;645;-64
2023/02/20 00:20:49;;;;;;;;;;;;;;;13.37;77.20;102120.72;1271695;23;714;-64
2023/02/20 00:21:39;;;;;;;;;;;;;;;13.35;77.67;102122.63;1270482;23;627;-64
2023/02/20 00:22:30;;;;;;;;;;;;;;;13.36;77.76;102120.81;1272543;23;641;-63
2023/02/20 00:23:20;;;;;;;;;;;;;;;13.36;77.25;102127.03;1271887;23;657;-63
2023/02/20 00:24:10;;;;;;;;;;;;;;;13.37;77.14;102120.72;1271598;23;650;-63
2023/02/20 00:25:01;;;;;;;;;;;;;;;13.36;77.75;102119.00;1271743;23;633;-63
2023/02/20 00:25:51;;;;;;;;;;;;;;;13.36;77.86;102112.78;1272480;23;657;-63
2023/02/20 00:26:42;;;;;;;;;;;;;;;13.34;77.72;102112.88;1271798;23;634;-63
2023/02/20 00:27:32;;;;;;;;;;;;;;;13.35;77.14;102111.06;1270437;23;744;-63
2023/02/20 00:28:22;;;;;;;;;;;;;;;13.33;77.28;102105.78;1272589;23;785;-65
2023/02/20 00:29:13;;;;;;;;;;;;;;;13.33;77.48;102112.94;1272075;23;641;-64
2023/02/20 00:30:03;;;;;;;;;;;;;;;13.32;77.51;102109.41;1271688;23;642;-64
2023/02/20 00:30:54;;;;;;;;;;;;;;;13.31;77.48;102105.00;1272656;23;673;-63
2023/02/20 00:31:44;;;;;;;;;;;;;;;13.32;77.86;102112.09;1270731;23;674;-63
2023/02/20 00:32:35;;;;;;;;;;;;;;;13.31;77.54;102112.16;1272505;23;606;-63
2023/02/20 00:33:25;;;;;;;;;;;;;;;13.30;78.04;102105.94;1270568;23;618;-64
2023/02/20 00:34:15;;;;;;;;;;;;;;;13.30;77.38;102116.66;1272551;23;640;-64
2023/02/20 00:35:06;;;;;;;;;;;;;;;13.29;77.93;102109.56;1271856;23;674;-64
2023/02/20 00:35:56;;;;;;;;;;;;;;;13.30;77.25;102107.75;1272517;23;680;-64
2023/02/20 00:36:47;;;;;;;;;;;;;;;13.29;78.00;102112.25;1271757;23;685;-64
2023/02/20 00:37:37;;;;;;;;;;;;;;;13.29;78.22;102104.22;1272295;23;669;-64
2023/02/20 00:38:28;;;;;;;;;;;;;;;13.28;77.81;102106.97;1271739;23;661;-63
2023/02/20 00:39:18;;;;;;;;;;;;;;;13.29;77.31;102106.91;1269921;23;639;-64
2023/02/20 00:40:09;;;;;;;;;;;;;;;13.28;77.63;102105.16;1272574;23;629;-63
2023/02/20 00:40:59;;;;;;;;;;;;;;;13.31;77.29;102102.31;1271842;23;630;-63
2023/02/20 00:41:49;;;;;;;;;;;;;;;13.30;77.22;102103.28;1270760;23;626;-63
2023/02/20 00:42:40;;;;;;;;;;;;;;;13.29;77.73;102101.53;1272197;23;697;-63
2023/02/20 00:43:35;;;;;;;;;;;;;;;13.30;77.93;102102.41;1270349;23;650;-63
2023/02/20 00:44:25;;;;;;;;;;;;;;;13.28;77.68;102105.16;1272676;23;629;-63
2023/02/20 00:45:15;;;;;;;;;;;;;;;13.28;77.99;102102.50;1271510;23;642;-63
2023/02/20 00:46:06;;;;;;;;;;;;;;;13.28;78.33;102097.13;1271662;23;509;-63
2023/02/20 00:46:56;;;;;;;;;;;;;;;13.28;77.58;102098.94;1271510;23;630;-63
2023/02/20 00:47:47;;;;;;;;;;;;;;;13.26;77.72;102100.84;1272593;23;693;-64
2023/02/20 00:48:37;;;;;;;;;;;;;;;13.26;78.05;102085.66;1272387;23;696;-64
2023/02/20 00:49:28;;;;;;;;;;;;;;;13.29;77.78;102093.50;1272538;23;700;-63
2023/02/20 00:50:18;;;;;;;;;;;;;;;13.28;77.16;102094.47;1270565;23;690;-63
2023/02/20 00:51:08;;;;;;;;;;;;;;;13.28;78.00;102094.47;1271550;23;678;-64
2023/02/20 00:51:59;;;;;;;;;;;;;;;13.28;77.43;102094.47;1271786;23;682;-63
2023/02/20 00:52:49;;;;;;;;;;;;;;;13.29;77.55;102101.53;1272482;23;624;-63
2023/02/20 00:53:40;;;;;;;;;;;;;;;13.28;77.26;102097.13;1271169;23;713;-64
2023/02/20 00:54:30;;;;;;;;;;;;;;;13.30;78.08;102102.41;1270552;23;705;-64
2023/02/20 00:55:21;;;;;;;;;;;;;;;13.31;77.40;102104.13;1271523;23;638;-64
2023/02/20 00:56:11;;;;;;;;;;;;;;;13.30;77.64;102099.72;1271989;23;685;-63
2023/02/20 00:57:01;;;;;;;;;;;;;;;13.27;77.88;102086.50;1271512;23;1892;-63
2023/02/20 00:57:52;;;;;;;;;;;;;;;13.27;77.44;102090.06;1271765;23;618;-63
2023/02/20 00:58:42;;;;;;;;;;;;;;;13.27;77.94;102087.38;1271531;23;618;-63
2023/02/20 00:59:33;;;;;;;;;;;;;;;13.27;77.89;102076.66;1271690;23;665;-63
2023/02/20 01:00:23;;;;;;;;;;;;;;;13.28;78.00;102078.41;1272439;23;605;-63
2023/02/20 01:01:15;;;;;;;;;;;;;;;13.27;78.20;102078.47;1271780;23;647;-63
2023/02/20 01:02:05;;;;;;;;;;;;;;;13.26;77.55;102066.91;1271671;23;669;-63
2023/02/20 01:02:56;;;;;;;;;;;;;;;13.26;77.33;102066.91;1272528;23;727;-63
2023/02/20 01:03:46;;;;;;;;;;;;;;;13.26;77.33;102060.69;1272293;23;626;-63
2023/02/20 01:04:37;;;;;;;;;;;;;;;13.28;77.79;102062.34;1271639;23;653;-63
2023/02/20 01:05:27;;;;;;;;;;;;;;;13.27;77.24;102057.94;1272307;23;736;-63
2023/02/20 01:06:17;;;;;;;;;;;;;;;13.27;77.94;102044.53;1272553;23;664;-63
2023/02/20 01:07:08;;;;;;;;;;;;;;;13.27;77.73;102039.19;1271879;23;637;-63
2023/02/20 01:07:58;;;;;;;;;;;;;;;13.28;77.97;102035.56;1270646;23;657;-63
2023/02/20 01:08:49;;;;;;;;;;;;;;;13.27;77.18;102033.84;1271727;23;688;-63
2023/02/20 01:09:39;;;;;;;;;;;;;;;13.26;77.21;102025.88;1270620;23;619;-63
2023/02/20 01:10:30;;;;;;;;;;;;;;;13.28;77.48;102024.00;1271627;23;669;-63
2023/02/20 01:11:20;;;;;;;;;;;;;;;13.27;78.13;102017.78;1271861;23;625;-63
2023/02/20 01:12:10;;;;;;;;;;;;;;;13.28;77.72;102018.63;1271455;23;677;-63
2023/02/20 01:13:01;;;;;;;;;;;;;;;13.27;77.22;102020.44;1271800;23;673;-63
2023/02/20 01:13:51;;;;;;;;;;;;;;;13.28;77.85;102030.22;1272572;23;754;-63
2023/02/20 01:14:42;;;;;;;;;;;;;;;13.27;77.94;102022.25;1271668;23;652;-63
2023/02/20 01:15:32;;;;;;;;;;;;;;;13.26;77.49;102013.38;1271835;23;693;-63
2023/02/20 01:16:22;;;;;;;;;;;;;;;13.26;77.29;102004.47;1271568;23;662;-63
2023/02/20 01:17:13;;;;;;;;;;;;;;;13.26;77.88;102013.38;1271786;23;1920;-64
2023/02/20 01:18:04;;;;;;;;;;;;;;;13.27;78.14;102011.56;1271834;23;724;-63
2023/02/20 01:18:55;;;;;;;;;;;;;;;13.26;77.89;102016.03;1271894;23;645;-63
2023/02/20 01:19:45;;;;;;;;;;;;;;;13.27;77.12;102016.91;1271874;23;693;-64
2023/02/20 01:20:36;;;;;;;;;;;;;;;13.26;77.25;102005.34;1271502;23;665;-63
2023/02/20 01:21:26;;;;;;;;;;;;;;;13.27;78.05;102009.75;1271799;23;638;-64
2023/02/20 01:22:17;;;;;;;;;;;;;;;13.25;77.46;102009.00;1271634;23;645;-64
2023/02/20 01:23:07;;;;;;;;;;;;;;;13.24;77.94;102017.97;1271842;23;661;-64
2023/02/20 01:23:58;;;;;;;;;;;;;;;13.24;77.91;102012.63;1272893;23;614;-64
2023/02/20 01:24:48;;;;;;;;;;;;;;;13.23;77.79;102026.97;1272291;23;657;-64
2023/02/20 01:25:38;;;;;;;;;;;;;;;13.24;77.68;102030.50;1271839;23;626;-64
2023/02/20 01:26:29;;;;;;;;;;;;;;;13.22;77.88;102025.22;1271262;23;670;-64
2023/02/20 01:27:19;;;;;;;;;;;;;;;13.23;77.54;102034.97;1272463;23;637;-64
2023/02/20 01:28:10;;;;;;;;;;;;;;;13.24;77.32;102030.50;1270854;23;747;-64
2023/02/20 01:29:00;;;;;;;;;;;;;;;13.23;77.59;102032.31;1272758;23;680;-64
2023/02/20 01:29:51;;;;;;;;;;;;;;;13.23;77.60;102026.97;1272093;23;712;-64
2023/02/20 01:30:41;;;;;;;;;;;;;;;13.24;77.17;102022.47;1271687;23;622;-64
2023/02/20 01:31:32;;;;;;;;;;;;;;;13.20;77.30;102025.31;1271961;23;633;-64
2023/02/20 01:32:22;;;;;;;;;;;;;;;13.20;78.03;102019.97;1272104;23;680;-64
2023/02/20 01:33:12;;;;;;;;;;;;;;;13.22;77.83;102019.88;1270959;23;678;-64
2023/02/20 01:34:03;;;;;;;;;;;;;;;13.24;77.85;102017.97;1272239;23;638;-63
2023/02/20 01:34:53;;;;;;;;;;;;;;;13.25;77.14;102019.69;1272375;23;633;-63
2023/02/20 01:35:44;;;;;;;;;;;;;;;13.23;77.25;102016.25;1270951;23;701;-63
2023/02/20 01:36:34;;;;;;;;;;;;;;;13.23;77.85;102016.25;1272738;23;814;-63
2023/02/20 01:37:25;;;;;;;;;;;;;;;13.22;77.94;102011.84;1271360;23;611;-63
2023/02/20 01:38:15;;;;;;;;;;;;;;;13.22;77.42;102009.16;1272143;23;824;-63
2023/02/20 01:39:05;;;;;;;;;;;;;;;13.20;77.34;102011.94;1270891;23;625;-63
2023/02/20 01:39:56;;;;;;;;;;;;;;;13.19;77.73;102017.38;1272041;23;681;-63
2023/02/20 01:40:47;;;;;;;;;;;;;;;13.19;77.80;102015.56;1270909;23;693;-64
2023/02/20 01:41:38;;;;;;;;;;;;;;;13.18;77.78;102012.97;1272829;23;626;-64
2023/02/20 01:42:28;;;;;;;;;;;;;;;13.19;77.36;102009.34;1273000;23;642;-64
2023/02/20 01:43:18;;;;;;;;;;;;;;;13.18;77.53;102005.78;1271841;23;685;-64
2023/02/20 01:44:09;;;;;;;;;;;;;;;13.19;77.51;102009.34;1272994;23;668;-64
2023/02/20 01:44:59;;;;;;;;;;;;;;;13.20;77.23;102005.72;1270909;23;678;-64
2023/02/20 01:45:50;;;;;;;;;;;;;;;13.17;77.51;102008.56;1271878;23;728;-62
2023/02/20 01:46:40;;;;;;;;;;;;;;;13.17;77.23;102013.91;1272059;23;677;-64
2023/02/20 01:47:30;;;;;;;;;;;;;;;13.19;77.44;102014.69;1271883;23;632;-64
2023/02/20 01:48:21;;;;;;;;;;;;;;;13.18;78.07;102011.16;1271334;23;657;-64
2023/02/20 01:49:11;;;;;;;;;;;;;;;13.18;77.86;102010.28;1271771;23;681;-64
2023/02/20 01:50:04;;;;;;;;;;;;;;;13.18;77.14;102015.63;1272785;23;661;-64
2023/02/20 01:50:54;;;;;;;;;;;;;;;13.17;77.60;102012.09;1272213;23;668;-64
2023/02/20 01:51:45;;;;;;;;;;;;;;;13.16;77.79;102009.50;1271480;23;625;-63
2023/02/20 01:52:37;;;;;;;;;;;;;;;13.17;77.52;102011.22;1271764;23;654;-64
2023/02/20 01:53:28;;;;;;;;;;;;;;;13.15;77.39;102008.66;1272494;23;661;-64
2023/02/20 01:54:18;;;;;;;;;;;;;;;13.15;78.10;102002.44;1270587;23;650;-66
2023/02/20 01:55:09;;;;;;;;;;;;;;;13.15;78.04;102007.78;1271217;23;887;-64
2023/02/20 01:55:59;;;;;;;;;;;;;;;13.14;78.15;102006.03;1272114;23;689;-64
2023/02/20 01:56:49;;;;;;;;;;;;;;;13.13;77.86;102010.50;1271032;23;658;-65
2023/02/20 01:57:40;;;;;;;;;;;;;;;13.14;78.41;102006.03;1272007;23;630;-66
2023/02/20 01:58:30;;;;;;;;;;;;;;;13.12;78.38;102003.44;1270815;23;606;-65
2023/02/20 01:59:21;;;;;;;;;;;;;;;13.14;77.75;101998.00;1272011;23;618;-64
2023/02/20 02:00:11;;;;;;;;;;;;;;;13.13;77.65;102001.63;1270791;23;788;-64
2023/02/20 02:01:02;;;;;;;;;;;;;;;13.12;77.87;102000.75;1271972;23;642;-64
2023/02/20 02:01:52;;;;;;;;;;;;;;;13.11;78.24;101991.00;1272051;23;740;-65
2023/02/20 02:02:42;;;;;;;;;;;;;;;13.12;77.75;101999.88;1271833;23;653;-64
2023/02/20 02:03:33;;;;;;;;;;;;;;;13.12;77.92;101997.22;1271926;23;665;-64
2023/02/20 02:04:23;;;;;;;;;;;;;;;13.12;77.99;101997.22;1272162;23;673;-65
2023/02/20 02:05:14;;;;;;;;;;;;;;;13.11;78.04;101988.31;1270763;23;634;-65
2023/02/20 02:06:04;;;;;;;;;;;;;;;13.14;77.59;101995.31;1270834;23;645;-65
2023/02/20 02:06:55;;;;;;;;;;;;;;;13.13;77.91;101989.09;1271969;23;634;-65
2023/02/20 02:07:45;;;;;;;;;;;;;;;13.12;78.03;101992.72;1272146;23;689;-65
2023/02/20 02:08:35;;;;;;;;;;;;;;;13.11;78.10;101996.34;1271705;23;678;-65
2023/02/20 02:09:26;;;;;;;;;;;;;;;13.12;77.36;101998.06;1272037;23;634;-64
2023/02/20 02:10:16;;;;;;;;;;;;;;;13.14;78.07;101992.63;1270772;23;622;-65
2023/02/20 02:11:07;;;;;;;;;;;;;;;13.16;77.39;101998.81;1271915;23;831;-64
2023/02/20 02:11:57;;;;;;;;;;;;;;;13.16;78.22;102001.47;1272243;23;879;-64
2023/02/20 02:12:48;;;;;;;;;;;;;;;13.14;77.45;101998.00;1272392;23;606;-65
2023/02/20 02:13:38;;;;;;;;;;;;;;;13.14;77.38;101995.31;1271242;23;689;-64
2023/02/20 02:14:28;;;;;;;;;;;;;;;13.14;77.81;101995.31;1272394;23;693;-64
2023/02/20 02:15:19;;;;;;;;;;;;;;;13.12;77.75;101986.50;1270892;23;681;-64
2023/02/20 02:16:09;;;;;;;;;;;;;;;13.11;77.53;101992.81;1272035;23;630;-64
2023/02/20 02:17:00;;;;;;;;;;;;;;;13.11;77.32;101984.78;1273021;23;1940;-64
2023/02/20 02:17:50;;;;;;;;;;;;;;;13.11;77.60;101984.78;1271531;23;716;-65
2023/02/20 02:18:41;;;;;;;;;;;;;;;13.12;78.11;101989.19;1271749;23;645;-65
2023/02/20 02:19:31;;;;;;;;;;;;;;;13.12;78.00;101981.16;1272495;23;673;-65
2023/02/20 02:20:21;;;;;;;;;;;;;;;13.13;77.72;101982.88;1272319;23;657;-65
2023/02/20 02:21:12;;;;;;;;;;;;;;;13.13;77.48;101988.22;1271218;23;669;-63
2023/02/20 02:22:03;;;;;;;;;;;;;;;13.13;78.13;101983.75;1270616;23;611;-64
2023/02/20 02:22:53;;;;;;;;;;;;;;;13.12;77.64;101987.38;1271678;23;622;-64
2023/02/20 02:23:44;;;;;;;;;;;;;;;13.12;77.44;101983.81;1272695;23;622;-64
2023/02/20 02:24:34;;;;;;;;;;;;;;;13.12;77.50;101976.66;1272978;23;669;-63
2023/02/20 02:25:25;;;;;;;;;;;;;;;13.14;77.68;101979.25;1272822;23;704;-63
2023/02/20 02:26:15;;;;;;;;;;;;;;;13.14;77.94;101985.47;1270890;23;650;-64
2023/02/20 02:27:06;;;;;;;;;;;;;;;13.14;77.99;101968.53;1271775;23;638;-63
2023/02/20 02:27:56;;;;;;;;;;;;;;;13.14;77.25;101971.22;1272016;23;689;-64
2023/02/20 02:28:46;;;;;;;;;;;;;;;13.12;77.49;101970.44;1272650;23;669;-64
2023/02/20 02:29:37;;;;;;;;;;;;;;;13.12;77.31;101981.16;1272080;23;648;-64
2023/02/20 02:30:27;;;;;;;;;;;;;;;13.12;77.43;101973.13;1270726;23;662;-64
2023/02/20 02:31:18;;;;;;;;;;;;;;;13.12;78.19;101973.13;1271955;23;610;-64
2023/02/20 02:32:08;;;;;;;;;;;;;;;13.11;78.06;101968.72;1271954;23;633;-64
2023/02/20 02:32:58;;;;;;;;;;;;;;;13.12;77.53;101962.41;1271770;23;636;-65
2023/02/20 02:33:49;;;;;;;;;;;;;;;13.11;78.15;101964.22;1272594;23;692;-64
2023/02/20 02:34:39;;;;;;;;;;;;;;;13.12;77.41;101960.59;1270420;23;663;-64
2023/02/20 02:35:30;;;;;;;;;;;;;;;13.12;77.42;101965.97;1270171;23;646;-64
2023/02/20 02:36:20;;;;;;;;;;;;;;;13.12;77.24;101959.75;1272829;23;641;-64
2023/02/20 02:37:11;;;;;;;;;;;;;;;13.12;78.04;101957.94;1271724;23;1936;-64
2023/02/20 02:38:01;;;;;;;;;;;;;;;13.11;77.83;101960.69;1272453;23;657;-64
2023/02/20 02:38:51;;;;;;;;;;;;;;;13.12;77.34;101965.09;1270558;23;625;-64
2023/02/20 02:39:42;;;;;;;;;;;;;;;13.13;77.37;101958.78;1271061;23;736;-64
2023/02/20 02:40:32;;;;;;;;;;;;;;;13.10;77.64;101962.50;1270812;23;713;-64
2023/02/20 02:41:23;;;;;;;;;;;;;;;13.11;77.36;101963.38;1271845;23;676;-64
2023/02/20 02:42:13;;;;;;;;;;;;;;;13.11;77.35;101952.66;1272083;23;638;-63
2023/02/20 02:43:03;;;;;;;;;;;;;;;13.11;77.70;101952.66;1271761;23;665;-63
2023/02/20 02:43:54;;;;;;;;;;;;;;;13.10;77.84;101956.28;1271877;23;682;-64
2023/02/20 02:44:44;;;;;;;;;;;;;;;13.10;77.06;101956.28;1270901;23;701;-64
2023/02/20 02:45:35;;;;;;;;;;;;;;;13.09;77.25;101946.53;1271826;23;677;-63
2023/02/20 02:46:25;;;;;;;;;;;;;;;13.09;77.40;101951.88;1271743;23;654;-63
2023/02/20 02:47:16;;;;;;;;;;;;;;;13.09;77.72;101949.22;1271865;23;641;-64
2023/02/20 02:48:06;;;;;;;;;;;;;;;13.08;77.82;101952.84;1272047;23;646;-64
2023/02/20 02:48:57;;;;;;;;;;;;;;;13.10;77.32;101953.59;1271750;23;690;-63
2023/02/20 02:49:48;;;;;;;;;;;;;;;13.07;77.08;101949.31;1271204;23;660;-64
2023/02/20 02:50:38;;;;;;;;;;;;;;;13.09;77.25;101951.88;1272745;23;621;-64
2023/02/20 02:51:29;;;;;;;;;;;;;;;13.09;77.58;101954.56;1271739;23;661;-64
2023/02/20 02:52:37;;;;;;;;;;;;;;;13.07;77.30;101946.66;1271993;23;622;-63
2023/02/20 02:53:27;;;;;;;;;;;;;;;13.08;77.43;101947.47;1272785;23;668;-63
2023/02/20 02:54:25;;;;;;;;;;;;;;;13.07;77.75;101945.78;1271744;23;645;-63
2023/02/20 02:55:15;;;;;;;;;;;;;;;13.07;77.68;101956.50;1272812;23;720;-63
2023/02/20 02:56:20;;;;;;;;;;;;;;;13.06;77.87;101952.09;1270803;23;649;-64
2023/02/20 02:57:11;;;;;;;;;;;;;;;13.06;77.40;101955.63;1271892;23;1926;-64
2023/02/20 02:58:01;;;;;;;;;;;;;;;13.07;77.32;101951.13;1271692;23;622;-64
2023/02/20 02:58:52;;;;;;;;;;;;;;;13.07;76.84;101953.81;1271825;23;630;-64
2023/02/20 02:59:44;;;;;;;;;;;;;;;13.06;77.19;101947.59;1272053;23;602;-63
2023/02/20 03:00:34;;;;;;;;;;;;;;;13.05;77.68;101943.19;1271974;23;646;-64
2023/02/20 03:01:24;;;;;;;;;;;;;;;13.06;77.87;101944.91;1270968;23;606;-63
2023/02/20 03:02:15;;;;;;;;;;;;;;;13.06;77.46;101955.63;1271846;23;740;-64
2023/02/20 03:03:05;;;;;;;;;;;;;;;13.06;77.69;101941.38;1272744;23;658;-64
2023/02/20 03:03:56;;;;;;;;;;;;;;;13.05;77.57;101951.22;1272556;23;639;-63
2023/02/20 03:04:46;;;;;;;;;;;;;;;13.07;77.33;101946.66;1272023;23;664;-64
2023/02/20 03:05:39;;;;;;;;;;;;;;;13.07;77.52;101945.78;1271768;23;618;-63
2023/02/20 03:06:33;;;;;;;;;;;;;;;13.04;77.56;101941.47;1272599;23;633;-65
2023/02/20 03:07:23;;;;;;;;;;;;;;;13.04;77.40;101944.16;1271442;23;653;-65
2023/02/20 03:08:21;;;;;;;;;;;;;;;13.07;77.35;101948.47;1272596;23;621;-66
2023/02/20 03:09:11;;;;;;;;;;;;;;;13.07;77.53;101935.09;1271221;23;670;-64
2023/02/20 03:10:01;;;;;;;;;;;;;;;13.07;77.60;101941.28;1271675;23;649;-65
2023/02/20 03:10:53;;;;;;;;;;;;;;;13.07;77.01;101945.78;1271794;23;654;-65
2023/02/20 03:11:43;;;;;;;;;;;;;;;13.06;77.14;101933.34;1271212;23;634;-65
2023/02/20 03:12:34;;;;;;;;;;;;;;;13.07;76.96;101938.63;1271778;23;626;-64
2023/02/20 03:15:42;;;;;;;;;;;;;;;13.04;77.45;101948.63;1270751;23;764;-64
2023/02/20 03:16:33;;;;;;;;;;;;;;;13.04;76.77;101929.91;1271752;23;650;-65
2023/02/20 03:17:26;;;;;;;;;;;;;;;13.03;77.73;101936.19;1271914;23;1885;-64
2023/02/20 03:18:19;;;;;;;;;;;;;;;13.00;76.95;101950.63;1272438;23;1074;-65
2023/02/20 03:19:12;;;;;;;;;;;;;;;13.00;77.68;101941.72;1272726;23;622;-64
2023/02/20 03:20:03;;;;;;;;;;;;;;;13.02;76.95;101931.81;1270954;23;809;-65
2023/02/20 03:20:53;;;;;;;;;;;;;;;13.02;77.04;101926.44;1271995;23;660;-65
2023/02/20 03:21:43;;;;;;;;;;;;;;;13.02;77.63;101938.00;1270745;23;650;-65
2023/02/20 03:22:34;;;;;;;;;;;;;;;13.02;77.04;101927.31;1271769;23;665;-64
2023/02/20 03:23:25;;;;;;;;;;;;;;;13.02;77.59;101937.16;1272416;23;665;-64
2023/02/20 03:24:15;;;;;;;;;;;;;;;13.03;77.00;101931.72;1270904;23;609;-63
2023/02/20 03:25:06;;;;;;;;;;;;;;;13.04;77.32;101932.56;1270939;23;662;-64
2023/02/20 03:25:56;;;;;;;;;;;;;;;13.03;77.07;101937.06;1271929;23;698;-64
2023/02/20 03:26:46;;;;;;;;;;;;;;;13.03;77.42;101928.19;1271748;23;658;-64
2023/02/20 03:27:37;;;;;;;;;;;;;;;13.03;77.02;101930.84;1271793;23;611;-64
2023/02/20 03:28:28;;;;;;;;;;;;;;;13.04;76.99;101929.91;1272696;23;625;-64
2023/02/20 03:29:19;;;;;;;;;;;;;;;13.04;76.92;101932.56;1271907;23;677;-64
2023/02/20 03:30:10;;;;;;;;;;;;;;;13.05;76.85;101934.31;1272702;23;669;-64
2023/02/20 03:31:00;;;;;;;;;;;;;;;13.05;76.84;101928.94;1271910;23;634;-64
2023/02/20 03:43:27;;;;;;;;;;;;;;;13.02;77.70;101921.09;1270995;23;665;-63
2023/02/20 03:44:17;;;;;;;;;;;;;;;13.02;77.80;101921.09;1272515;23;652;-63
2023/02/20 03:45:08;;;;;;;;;;;;;;;13.00;77.50;101907.81;1271728;23;827;-63
2023/02/20 03:46:01;;;;;;;;;;;;;;;13.01;77.65;101919.38;1271977;23;661;-63
2023/02/20 03:46:51;;;;;;;;;;;;;;;13.01;76.85;101919.38;1272756;23;641;-63
2023/02/20 03:47:42;;;;;;;;;;;;;;;13.03;77.58;101904.97;1271049;23;606;-62
2023/02/20 03:48:32;;;;;;;;;;;;;;;13.06;77.43;101911.94;1271828;23;649;-64
2023/02/20 03:49:22;;;;;;;;;;;;;;;13.07;77.55;101903.84;1272539;23;688;-64
2023/02/20 03:51:22;;;;;;;;;;;;;;;13.05;77.41;101896.84;1271209;23;828;-64
2023/02/20 03:52:13;;;;;;;;;;;;;;;13.01;77.68;101896.16;1271588;23;662;-64
2023/02/20 03:53:03;;;;;;;;;;;;;;;13.01;77.65;101898.84;1271950;23;653;-63
2023/02/20 03:53:53;;;;;;;;;;;;;;;13.00;77.01;101896.25;1270649;23;713;-64
2023/02/20 03:54:44;;;;;;;;;;;;;;;12.98;77.26;101895.47;1271657;23;630;-64
2023/02/20 03:55:34;;;;;;;;;;;;;;;12.99;77.31;101897.19;1271952;23;633;-64
2023/02/20 03:56:25;;;;;;;;;;;;;;;12.99;77.62;101894.50;1270854;23;662;-64
2023/02/20 03:57:15;;;;;;;;;;;;;;;13.00;77.36;101894.44;1271899;23;1884;-64
2023/02/20 03:58:05;;;;;;;;;;;;;;;13.00;77.42;101891.75;1271612;23;674;-64
2023/02/20 03:58:56;;;;;;;;;;;;;;;13.00;76.97;101885.53;1271723;23;680;-64
2023/02/20 03:59:46;;;;;;;;;;;;;;;13.01;77.05;101892.63;1272015;23;646;-64
2023/02/20 04:00:37;;;;;;;;;;;;;;;12.99;77.07;101890.03;1272341;23;640;-64
2023/02/20 04:01:27;;;;;;;;;;;;;;;12.99;77.36;101889.16;1270829;23;634;-64
2023/02/20 04:02:18;;;;;;;;;;;;;;;13.01;77.56;101887.25;1271975;23;665;-64
2023/02/20 04:03:08;;;;;;;;;;;;;;;13.00;77.39;101890.88;1271762;23;653;-64
2023/02/20 04:03:58;;;;;;;;;;;;;;;13.01;77.44;101879.22;1271605;23;589;-65
2023/02/20 04:04:49;;;;;;;;;;;;;;;13.01;77.34;101887.25;1272615;23;605;-64
2023/02/20 04:05:39;;;;;;;;;;;;;;;13.01;77.04;101881.91;1271930;23;622;-64
2023/02/20 04:06:30;;;;;;;;;;;;;;;13.00;76.88;101891.75;1270799;23;634;-64
2023/02/20 04:07:20;;;;;;;;;;;;;;;12.98;77.23;101890.97;1271764;23;622;-64
2023/02/20 04:08:11;;;;;;;;;;;;;;;12.98;77.47;101882.09;1270733;23;774;-64
2023/02/20 04:09:01;;;;;;;;;;;;;;;12.98;77.17;101890.09;1271789;23;708;-64
2023/02/20 04:09:52;;;;;;;;;;;;;;;12.97;76.98;101880.34;1270600;23;633;-64
2023/02/20 04:10:42;;;;;;;;;;;;;;;12.95;77.46;101879.59;1271763;23;677;-64
2023/02/20 04:11:32;;;;;;;;;;;;;;;12.97;76.94;101877.69;1270583;23;650;-64
2023/02/20 04:12:23;;;;;;;;;;;;;;;12.98;76.97;101882.09;1271686;23;630;-64
2023/02/20 04:13:13;;;;;;;;;;;;;;;12.99;77.59;101875.78;1271864;23;681;-64
2023/02/20 04:14:04;;;;;;;;;;;;;;;13.01;77.43;101882.78;1271680;23;634;-64
2023/02/20 04:14:54;;;;;;;;;;;;;;;13.02;76.89;101883.63;1271843;23;622;-64
2023/02/20 04:15:44;;;;;;;;;;;;;;;13.02;76.88;101887.19;1270515;23;615;-64
2023/02/20 04:16:35;;;;;;;;;;;;;;;13.02;77.60;101887.19;1271155;23;623;-64
2023/02/20 04:17:25;;;;;;;;;;;;;;;13.03;77.22;101888.03;1271848;23;1885;-64
2023/02/20 04:18:17;;;;;;;;;;;;;;;13.01;76.56;101885.44;1271479;23;1099;-64
2023/02/20 04:19:07;;;;;;;;;;;;;;;13.02;77.27;101887.19;1272092;23;770;-64
2023/02/20 04:19:57;;;;;;;;;;;;;;;13.01;77.08;101885.44;1270691;23;748;-64
2023/02/20 04:20:48;;;;;;;;;;;;;;;13.00;76.66;101880.19;1272634;23;653;-64
2023/02/20 04:21:38;;;;;;;;;;;;;;;13.00;77.50;101872.16;1271810;23;662;-64
2023/02/20 04:22:29;;;;;;;;;;;;;;;12.99;76.46;101875.78;1271633;23;623;-65
2023/02/20 04:23:19;;;;;;;;;;;;;;;12.99;77.21;101876.66;1271884;23;622;-64
2023/02/20 04:24:10;;;;;;;;;;;;;;;12.99;76.94;101875.78;1270594;23;646;-64
2023/02/20 04:25:00;;;;;;;;;;;;;;;12.99;77.16;101883.81;1271735;23;658;-65
2023/02/20 04:25:50;;;;;;;;;;;;;;;12.99;76.61;101886.47;1270541;23;619;-65
2023/02/20 04:26:41;;;;;;;;;;;;;;;12.98;76.59;101896.31;1271626;23;662;-64
2023/02/20 04:27:31;;;;;;;;;;;;;;;12.99;76.71;101889.16;1271852;23;611;-65
2023/02/20 04:28:22;;;;;;;;;;;;;;;12.97;77.25;101881.22;1270642;23;629;-65
2023/02/20 04:29:12;;;;;;;;;;;;;;;12.96;77.30;101886.66;1271787;23;626;-65
2023/02/20 04:30:03;;;;;;;;;;;;;;;12.94;76.87;101883.22;1270621;23;658;-64
2023/02/20 04:30:53;;;;;;;;;;;;;;;12.94;76.90;101880.53;1271687;23;642;-65
2023/02/20 04:31:43;;;;;;;;;;;;;;;12.95;77.05;101875.09;1272469;23;641;-65
2023/02/20 04:32:34;;;;;;;;;;;;;;;12.95;76.84;101871.56;1271835;23;690;-65
2023/02/20 04:33:24;;;;;;;;;;;;;;;12.97;77.29;101878.53;1271889;23;626;-65
2023/02/20 04:34:15;;;;;;;;;;;;;;;12.96;76.87;101883.97;1271673;23;674;-66
2023/02/20 04:35:05;;;;;;;;;;;;;;;12.96;77.30;101883.97;1271886;23;673;-65
2023/02/20 04:35:57;;;;;;;;;;;;;;;12.99;76.77;101883.81;1272503;23;692;-65
2023/02/20 04:36:47;;;;;;;;;;;;;;;12.98;77.25;101882.09;1271248;23;750;-65
2023/02/20 04:37:38;;;;;;;;;;;;;;;12.99;76.75;101884.66;1271591;23;618;-65
2023/02/20 04:38:28;;;;;;;;;;;;;;;12.99;76.70;101883.81;1271749;23;661;-65
2023/02/20 04:39:21;;;;;;;;;;;;;;;12.99;76.43;101886.47;1270687;23;602;-65
2023/02/20 04:40:11;;;;;;;;;;;;;;;12.98;77.12;101882.09;1270940;23;606;-65
2023/02/20 04:41:01;;;;;;;;;;;;;;;12.97;77.19;101886.56;1271921;23;677;-65
2023/02/20 04:41:52;;;;;;;;;;;;;;;12.98;76.65;101882.94;1272506;23;565;-65
2023/02/20 04:42:42;;;;;;;;;;;;;;;12.97;76.68;101883.03;1271809;23;676;-65